sensor_id;sensor_type;location;lat;lon;timestamp;pressure;altitude;pressure_sealevel;temperature;humidity
15529;BME280;7866;52.280;9.500;2023-02-28T00:00:47;101866.53;;;0.84;78.49
15529;BME280;7866;52.280;9.500;2023-02-28T00:05:48;101865.00;;;0.79;78.61
15529;BME280;7866;52.280;9.500;2023-02-28T00:10:50;101869.00;;;0.68;78.87
15529;BME280;7866;52.280;9.500;2023-02-28T00:16:04;101864.56;;;0.69;79.09
15529;BME280;7866;52.280;9.500;2023-02-28T00:21:06;101865.13;;;0.57;79.12
15529;BME280;7866;52.280;9.500;2023-02-28T00:26:08;101861.03;;;0.49;80.08
15529;BME280;7866;52.280;9.500;2023-02-28T00:31:11;101860.31;;;0.46;80.74
15529;BME280;7866;52.280;9.500;2023-02-28T00:36:13;101859.84;;;0.57;80.65
15529;BME280;7866;52.280;9.500;2023-02-28T00:41:14;101859.00;;;0.56;80.21
15529;BME280;7866;52.280;9.500;2023-02-28T00:46:17;101854.16;;;0.66;79.29
15529;BME280;7866;52.280;9.500;2023-02-28T00:51:19;101853.31;;;0.65;79.31
15529;BME280;7866;52.280;9.500;2023-02-28T00:56:21;101855.81;;;0.68;79.31
15529;BME280;7866;52.280;9.500;2023-02-28T01:01:24;101858.53;;;0.46;78.88
15529;BME280;7866;52.280;9.500;2023-02-28T01:06:25;101855.84;;;0.48;79.21
15529;BME280;7866;52.280;9.500;2023-02-28T01:11:27;101859.19;;;0.31;79.30
15529;BME280;7866;52.280;9.500;2023-02-28T01:16:30;101859.66;;;0.20;79.18
15529;BME280;7866;52.280;9.500;2023-02-28T01:21:32;101853.59;;;0.18;79.47
15529;BME280;7866;52.280;9.500;2023-02-28T01:26:35;101860.00;;;-0.09;79.24
15529;BME280;7866;52.280;9.500;2023-02-28T01:31:38;101869.06;;;-0.16;78.38
15529;BME280;7866;52.280;9.500;2023-02-28T01:36:39;101855.25;;;-0.21;78.99
15529;BME280;7866;52.280;9.500;2023-02-28T01:41:41;101854.63;;;-0.28;78.17
15529;BME280;7866;52.280;9.500;2023-02-28T01:46:44;101853.78;;;-0.29;79.13
15529;BME280;7866;52.280;9.500;2023-02-28T01:51:49;101855.97;;;-0.18;78.29
15529;BME280;7866;52.280;9.500;2023-02-28T01:56:55;101856.22;;;-0.24;78.16
15529;BME280;7866;52.280;9.500;2023-02-28T02:01:59;101850.00;;;-0.43;77.95
15529;BME280;7866;52.280;9.500;2023-02-28T02:07:02;101856.91;;;-0.41;78.15
15529;BME280;7866;52.280;9.500;2023-02-28T02:12:11;101850.84;;;-0.43;78.48
15529;BME280;7866;52.280;9.500;2023-02-28T02:17:22;101849.38;;;-0.50;78.26
15529;BME280;7866;52.280;9.500;2023-02-28T02:22:43;101846.19;;;-0.58;78.53
15529;BME280;7866;52.280;9.500;2023-02-28T02:28:04;101839.78;;;-0.51;78.24
15529;BME280;7866;52.280;9.500;2023-02-28T02:33:23;101840.81;;;-0.55;77.75
15529;BME280;7866;52.280;9.500;2023-02-28T02:38:33;101839.72;;;-0.71;78.79
15529;BME280;7866;52.280;9.500;2023-02-28T02:43:40;101828.75;;;-0.83;78.85
15529;BME280;7866;52.280;9.500;2023-02-28T02:48:46;101835.91;;;-0.86;79.11
15529;BME280;7866;52.280;9.500;2023-02-28T02:53:53;101844.94;;;-0.93;78.84
15529;BME280;7866;52.280;9.500;2023-02-28T02:58:59;101848.66;;;-0.99;79.42
15529;BME280;7866;52.280;9.500;2023-02-28T03:04:12;101842.97;;;-0.88;79.54
15529;BME280;7866;52.280;9.500;2023-02-28T03:09:16;101840.53;;;-0.93;78.96
15529;BME280;7866;52.280;9.500;2023-02-28T03:14:36;101847.19;;;-1.06;79.14
15529;BME280;7866;52.280;9.500;2023-02-28T03:19:53;101843.31;;;-1.19;78.87
15529;BME280;7866;52.280;9.500;2023-02-28T03:25:05;101835.63;;;-1.26;79.21
15529;BME280;7866;52.280;9.500;2023-02-28T03:30:11;101842.47;;;-1.21;79.96
15529;BME280;7866;52.280;9.500;2023-02-28T03:35:19;101832.78;;;-1.19;79.09
15529;BME280;7866;52.280;9.500;2023-02-28T03:40:27;101830.66;;;-1.10;79.02
15529;BME280;7866;52.280;9.500;2023-02-28T03:45:33;101835.63;;;-1.26;79.45
15529;BME280;7866;52.280;9.500;2023-02-28T03:50:38;101827.91;;;-1.30;79.06
15529;BME280;7866;52.280;9.500;2023-02-28T03:55:45;101828.41;;;-1.44;79.36
15529;BME280;7866;52.280;9.500;2023-02-28T04:00:52;101828.53;;;-1.47;79.35
15529;BME280;7866;52.280;9.500;2023-02-28T04:05:57;101829.16;;;-1.40;79.69
15529;BME280;7866;52.280;9.500;2023-02-28T04:11:04;101832.06;;;-1.48;79.55
15529;BME280;7866;52.280;9.500;2023-02-28T04:16:07;101835.44;;;-1.44;80.06
15529;BME280;7866;52.280;9.500;2023-02-28T04:21:12;101836.78;;;-1.58;79.86
15529;BME280;7866;52.280;9.500;2023-02-28T04:26:15;101836.09;;;-1.63;80.04
15529;BME280;7866;52.280;9.500;2023-02-28T04:31:16;101834.91;;;-1.54;79.55
15529;BME280;7866;52.280;9.500;2023-02-28T04:36:18;101840.22;;;-1.56;79.75
15529;BME280;7866;52.280;9.500;2023-02-28T04:41:22;101837.66;;;-1.57;79.05
15529;BME280;7866;52.280;9.500;2023-02-28T04:46:24;101846.66;;;-1.64;79.81
15529;BME280;7866;52.280;9.500;2023-02-28T04:51:25;101846.06;;;-1.73;78.96
15529;BME280;7866;52.280;9.500;2023-02-28T04:56:28;101849.19;;;-1.61;79.55
15529;BME280;7866;52.280;9.500;2023-02-28T05:01:32;101839.91;;;-1.71;79.23
15529;BME280;7866;52.280;9.500;2023-02-28T05:06:34;101853.84;;;-1.69;79.90
15529;BME280;7866;52.280;9.500;2023-02-28T05:11:37;101847.19;;;-1.80;78.90
15529;BME280;7866;52.280;9.500;2023-02-28T05:16:39;101856.28;;;-1.90;79.10
15529;BME280;7866;52.280;9.500;2023-02-28T05:21:48;101857.69;;;-1.80;79.63
15529;BME280;7866;52.280;9.500;2023-02-28T05:26:53;101854.78;;;-1.97;79.49
15529;BME280;7866;52.280;9.500;2023-02-28T05:31:55;101858.75;;;-1.85;80.31
15529;BME280;7866;52.280;9.500;2023-02-28T05:36:57;101868.47;;;-1.87;79.77
15529;BME280;7866;52.280;9.500;2023-02-28T05:42:00;101857.41;;;-1.97;80.51
15529;BME280;7866;52.280;9.500;2023-02-28T05:47:02;101866.44;;;-2.06;80.51
15529;BME280;7866;52.280;9.500;2023-02-28T05:52:04;101866.50;;;-2.07;80.20
15529;BME280;7866;52.280;9.500;2023-02-28T05:57:07;101870.63;;;-2.00;80.37
15529;BME280;7866;52.280;9.500;2023-02-28T06:02:11;101869.63;;;-1.96;80.40
15529;BME280;7866;52.280;9.500;2023-02-28T06:07:14;101873.56;;;-2.09;80.53
15529;BME280;7866;52.280;9.500;2023-02-28T06:12:19;101874.16;;;-2.01;80.66
15529;BME280;7866;52.280;9.500;2023-02-28T06:17:20;101872.75;;;-1.85;81.31
15529;BME280;7866;52.280;9.500;2023-02-28T06:22:22;101878.50;;;-1.74;79.80
15529;BME280;7866;52.280;9.500;2023-02-28T06:27:25;101876.34;;;-1.62;79.61
15529;BME280;7866;52.280;9.500;2023-02-28T06:32:27;101885.16;;;-1.63;79.40
15529;BME280;7866;52.280;9.500;2023-02-28T06:37:30;101887.03;;;-1.67;79.23
15529;BME280;7866;52.280;9.500;2023-02-28T06:42:33;101898.28;;;-1.63;78.83
15529;BME280;7866;52.280;9.500;2023-02-28T06:47:34;101900.59;;;-1.54;80.14
15529;BME280;7866;52.280;9.500;2023-02-28T06:52:36;101905.88;;;-1.56;79.60
15529;BME280;7866;52.280;9.500;2023-02-28T06:57:39;101901.53;;;-1.57;79.50
15529;BME280;7866;52.280;9.500;2023-02-28T07:02:41;101905.41;;;-1.42;79.32
15529;BME280;7866;52.280;9.500;2023-02-28T07:07:43;101908.28;;;-1.25;79.03
15529;BME280;7866;52.280;9.500;2023-02-28T07:12:48;101913.13;;;-0.89;79.19
15529;BME280;7866;52.280;9.500;2023-02-28T07:17:50;101914.63;;;-0.36;78.99
15529;BME280;7866;52.280;9.500;2023-02-28T07:22:51;101912.19;;;-0.19;77.21
15529;BME280;7866;52.280;9.500;2023-02-28T07:27:57;101920.88;;;-0.17;76.78
15529;BME280;7866;52.280;9.500;2023-02-28T07:33:00;101920.50;;;0.14;77.32
15529;BME280;7866;52.280;9.500;2023-02-28T07:38:02;101919.47;;;0.39;76.67
15529;BME280;7866;52.280;9.500;2023-02-28T07:43:06;101925.25;;;0.47;76.26
15529;BME280;7866;52.280;9.500;2023-02-28T07:48:07;101923.69;;;0.63;75.63
15529;BME280;7866;52.280;9.500;2023-02-28T07:53:10;101934.19;;;0.65;74.94
15529;BME280;7866;52.280;9.500;2023-02-28T07:58:13;101928.69;;;0.69;74.38
15529;BME280;7866;52.280;9.500;2023-02-28T08:03:17;101925.78;;;0.76;74.55
15529;BME280;7866;52.280;9.500;2023-02-28T08:08:19;101926.84;;;0.92;73.56
15529;BME280;7866;52.280;9.500;2023-02-28T08:13:22;101933.91;;;1.10;73.33
15529;BME280;7866;52.280;9.500;2023-02-28T08:18:24;101932.88;;;1.33;71.81
15529;BME280;7866;52.280;9.500;2023-02-28T08:23:25;101928.81;;;1.45;71.72
15529;BME280;7866;52.280;9.500;2023-02-28T08:28:28;101920.97;;;1.62;69.68
15529;BME280;7866;52.280;9.500;2023-02-28T08:33:30;101921.81;;;1.63;68.38
15529;BME280;7866;52.280;9.500;2023-02-28T08:38:32;101928.59;;;1.68;68.30
15529;BME280;7866;52.280;9.500;2023-02-28T08:43:35;101937.38;;;1.88;68.18
15529;BME280;7866;52.280;9.500;2023-02-28T08:48:37;101936.91;;;1.97;67.49
15529;BME280;7866;52.280;9.500;2023-02-28T08:53:39;101939.41;;;2.00;67.48
15529;BME280;7866;52.280;9.500;2023-02-28T08:58:44;101943.28;;;2.10;67.23
15529;BME280;7866;52.280;9.500;2023-02-28T09:03:47;101937.72;;;2.16;66.77
15529;BME280;7866;52.280;9.500;2023-02-28T09:08:50;101947.13;;;2.39;66.45
15529;BME280;7866;52.280;9.500;2023-02-28T09:13:53;101945.50;;;2.37;66.52
15529;BME280;7866;52.280;9.500;2023-02-28T09:18:56;101947.06;;;2.41;65.58
15529;BME280;7866;52.280;9.500;2023-02-28T09:23:57;101951.97;;;2.66;65.51
15529;BME280;7866;52.280;9.500;2023-02-28T09:29:00;101950.97;;;2.68;65.85
15529;BME280;7866;52.280;9.500;2023-02-28T09:34:03;101959.84;;;2.67;65.34
15529;BME280;7866;52.280;9.500;2023-02-28T09:39:05;101955.78;;;2.78;66.51
15529;BME280;7866;52.280;9.500;2023-02-28T09:44:16;101951.97;;;2.83;66.15
15529;BME280;7866;52.280;9.500;2023-02-28T09:49:23;101956.13;;;3.05;65.54
15529;BME280;7866;52.280;9.500;2023-02-28T09:54:29;101955.31;;;3.20;65.23
15529;BME280;7866;52.280;9.500;2023-02-28T09:59:49;101955.72;;;3.12;65.13
15529;BME280;7866;52.280;9.500;2023-02-28T10:04:56;101951.13;;;3.16;65.28
15529;BME280;7866;52.280;9.500;2023-02-28T10:10:02;101953.91;;;3.46;64.83
15529;BME280;7866;52.280;9.500;2023-02-28T10:15:13;101956.22;;;3.19;65.60
15529;BME280;7866;52.280;9.500;2023-02-28T10:20:19;101954.31;;;3.38;65.20
15529;BME280;7866;52.280;9.500;2023-02-28T10:25:29;101954.56;;;3.34;64.69
15529;BME280;7866;52.280;9.500;2023-02-28T10:30:32;101949.66;;;3.59;65.77
15529;BME280;7866;52.280;9.500;2023-02-28T10:35:35;101948.28;;;3.84;64.98
15529;BME280;7866;52.280;9.500;2023-02-28T10:40:36;101946.31;;;4.03;63.27
15529;BME280;7866;52.280;9.500;2023-02-28T10:45:53;101941.44;;;4.11;63.68
15529;BME280;7866;52.280;9.500;2023-02-28T10:50:55;101942.13;;;3.99;62.74
15529;BME280;7866;52.280;9.500;2023-02-28T10:56:01;101933.88;;;4.19;62.44
15529;BME280;7866;52.280;9.500;2023-02-28T11:01:08;101935.44;;;4.38;62.06
15529;BME280;7866;52.280;9.500;2023-02-28T11:06:16;101933.75;;;4.37;62.41
15529;BME280;7866;52.280;9.500;2023-02-28T11:11:19;101927.44;;;4.54;61.35
15529;BME280;7866;52.280;9.500;2023-02-28T11:16:31;101918.75;;;4.52;59.46
15529;BME280;7866;52.280;9.500;2023-02-28T11:21:35;101920.09;;;5.30;59.19
15529;BME280;7866;52.280;9.500;2023-02-28T11:26:42;101914.34;;;5.24;60.39
15529;BME280;7866;52.280;9.500;2023-02-28T11:32:00;101904.03;;;5.60;59.69
15529;BME280;7866;52.280;9.500;2023-02-28T11:37:04;101915.56;;;5.32;58.08
15529;BME280;7866;52.280;9.500;2023-02-28T11:42:23;101903.13;;;4.90;57.84
15529;BME280;7866;52.280;9.500;2023-02-28T11:47:34;101908.88;;;4.54;56.98
15529;BME280;7866;52.280;9.500;2023-02-28T11:52:44;101899.28;;;4.37;59.83
15529;BME280;7866;52.280;9.500;2023-02-28T11:58:14;101905.34;;;4.39;58.66
15529;BME280;7866;52.280;9.500;2023-02-28T12:03:27;101894.41;;;4.59;59.19
15529;BME280;7866;52.280;9.500;2023-02-28T12:08:43;101902.00;;;4.80;57.34
15529;BME280;7866;52.280;9.500;2023-02-28T12:13:53;101896.63;;;4.96;58.59
15529;BME280;7866;52.280;9.500;2023-02-28T12:19:16;101886.28;;;5.05;55.38
15529;BME280;7866;52.280;9.500;2023-02-28T12:24:32;101871.09;;;5.63;56.89
15529;BME280;7866;52.280;9.500;2023-02-28T12:29:42;101872.00;;;5.76;56.20
15529;BME280;7866;52.280;9.500;2023-02-28T12:34:49;101865.19;;;5.31;57.11
15529;BME280;7866;52.280;9.500;2023-02-28T12:40:00;101872.63;;;5.11;55.61
15529;BME280;7866;52.280;9.500;2023-02-28T12:45:09;101868.22;;;5.39;55.51
15529;BME280;7866;52.280;9.500;2023-02-28T12:50:13;101857.44;;;5.13;55.88
15529;BME280;7866;52.280;9.500;2023-02-28T12:55:21;101850.19;;;5.30;54.15
15529;BME280;7866;52.280;9.500;2023-02-28T13:00:29;101853.34;;;5.22;55.76
15529;BME280;7866;52.280;9.500;2023-02-28T13:06:12;101843.88;;;5.59;52.48
15529;BME280;7866;52.280;9.500;2023-02-28T13:11:28;101831.94;;;5.52;53.26
15529;BME280;7866;52.280;9.500;2023-02-28T13:16:51;101824.09;;;5.90;54.03
15529;BME280;7866;52.280;9.500;2023-02-28T13:21:56;101814.31;;;6.56;54.34
15529;BME280;7866;52.280;9.500;2023-02-28T13:27:21;101818.06;;;6.01;51.51
15529;BME280;7866;52.280;9.500;2023-02-28T13:32:33;101810.56;;;6.21;53.48
15529;BME280;7866;52.280;9.500;2023-02-28T13:37:42;101811.72;;;6.16;52.94
15529;BME280;7866;52.280;9.500;2023-02-28T13:42:47;101806.19;;;6.58;53.75
15529;BME280;7866;52.280;9.500;2023-02-28T13:47:55;101809.41;;;6.63;54.01
15529;BME280;7866;52.280;9.500;2023-02-28T13:58:48;101785.41;;;5.59;53.46
15529;BME280;7866;52.280;9.500;2023-02-28T14:04:09;101782.53;;;6.02;53.97
15529;BME280;7866;52.280;9.500;2023-02-28T14:09:19;101785.13;;;6.16;54.77
15529;BME280;7866;52.280;9.500;2023-02-28T14:14:54;101784.16;;;6.17;51.27
15529;BME280;7866;52.280;9.500;2023-02-28T14:19:59;101783.31;;;6.04;53.32
15529;BME280;7866;52.280;9.500;2023-02-28T14:25:15;101791.44;;;5.88;52.57
15529;BME280;7866;52.280;9.500;2023-02-28T14:30:37;101786.59;;;5.95;51.77
15529;BME280;7866;52.280;9.500;2023-02-28T14:36:01;101792.69;;;6.23;53.93
15529;BME280;7866;52.280;9.500;2023-02-28T14:41:14;101792.13;;;6.17;52.94
15529;BME280;7866;52.280;9.500;2023-02-28T14:46:18;101791.94;;;6.21;52.25
15529;BME280;7866;52.280;9.500;2023-02-28T14:51:22;101788.44;;;6.20;52.21
15529;BME280;7866;52.280;9.500;2023-02-28T14:56:27;101786.81;;;6.17;53.13
15529;BME280;7866;52.280;9.500;2023-02-28T15:01:32;101788.63;;;6.04;54.78
15529;BME280;7866;52.280;9.500;2023-02-28T15:06:34;101782.66;;;6.01;54.21
15529;BME280;7866;52.280;9.500;2023-02-28T15:11:36;101776.41;;;5.75;53.92
15529;BME280;7866;52.280;9.500;2023-02-28T15:16:43;101780.78;;;5.76;55.09
15529;BME280;7866;52.280;9.500;2023-02-28T15:21:48;101778.81;;;5.65;53.91
15529;BME280;7866;52.280;9.500;2023-02-28T15:26:54;101780.84;;;5.74;53.99
15529;BME280;7866;52.280;9.500;2023-02-28T15:32:01;101778.97;;;5.49;53.82
15529;BME280;7866;52.280;9.500;2023-02-28T15:37:07;101768.31;;;5.36;54.86
15529;BME280;7866;52.280;9.500;2023-02-28T15:42:28;101779.56;;;5.27;54.57
15529;BME280;7866;52.280;9.500;2023-02-28T15:47:33;101777.03;;;5.11;54.40
15529;BME280;7866;52.280;9.500;2023-02-28T15:52:40;101768.59;;;5.05;55.02
15529;BME280;7866;52.280;9.500;2023-02-28T15:57:44;101777.16;;;4.96;56.33
15529;BME280;7866;52.280;9.500;2023-02-28T16:02:48;101772.69;;;4.82;55.92
15529;BME280;7866;52.280;9.500;2023-02-28T16:07:50;101776.31;;;4.81;55.40
15529;BME280;7866;52.280;9.500;2023-02-28T16:12:53;101770.25;;;4.64;56.83
15529;BME280;7866;52.280;9.500;2023-02-28T16:17:57;101785.13;;;4.53;57.08
15529;BME280;7866;52.280;9.500;2023-02-28T16:22:59;101787.00;;;4.51;57.20
15529;BME280;7866;52.280;9.500;2023-02-28T16:28:02;101787.69;;;4.40;56.80
15529;BME280;7866;52.280;9.500;2023-02-28T16:33:05;101788.59;;;4.10;58.62
15529;BME280;7866;52.280;9.500;2023-02-28T16:38:06;101792.00;;;3.52;61.64
15529;BME280;7866;52.280;9.500;2023-02-28T16:43:15;101798.44;;;3.01;63.41
15529;BME280;7866;52.280;9.500;2023-02-28T16:48:19;101794.09;;;2.84;65.38
15529;BME280;7866;52.280;9.500;2023-02-28T16:53:21;101802.81;;;2.53;66.39
15529;BME280;7866;52.280;9.500;2023-02-28T16:58:22;101796.53;;;2.38;67.15
15529;BME280;7866;52.280;9.500;2023-02-28T17:03:28;101802.00;;;2.17;68.34
15529;BME280;7866;52.280;9.500;2023-02-28T17:08:29;101804.72;;;2.16;68.78
15529;BME280;7866;52.280;9.500;2023-02-28T17:13:32;101809.47;;;2.09;69.09
15529;BME280;7866;52.280;9.500;2023-02-28T17:18:36;101802.94;;;1.82;69.78
15529;BME280;7866;52.280;9.500;2023-02-28T17:23:39;101813.72;;;1.77;70.50
15529;BME280;7866;52.280;9.500;2023-02-28T17:28:41;101817.84;;;1.65;70.43
15529;BME280;7866;52.280;9.500;2023-02-28T17:33:44;101820.69;;;1.61;70.66
15529;BME280;7866;52.280;9.500;2023-02-28T17:38:45;101824.72;;;1.51;71.00
15529;BME280;7866;52.280;9.500;2023-02-28T17:43:47;101834.88;;;1.41;71.72
15529;BME280;7866;52.280;9.500;2023-02-28T17:48:53;101833.34;;;1.35;71.63
15529;BME280;7866;52.280;9.500;2023-02-28T17:53:54;101838.31;;;1.24;72.91
15529;BME280;7866;52.280;9.500;2023-02-28T17:58:56;101832.31;;;1.20;73.23
15529;BME280;7866;52.280;9.500;2023-02-28T18:04:00;101836.81;;;1.18;73.13
15529;BME280;7866;52.280;9.500;2023-02-28T18:09:01;101840.59;;;1.13;72.62
15529;BME280;7866;52.280;9.500;2023-02-28T18:14:03;101829.25;;;1.11;72.84
15529;BME280;7866;52.280;9.500;2023-02-28T18:19:06;101831.13;;;1.09;72.41
15529;BME280;7866;52.280;9.500;2023-02-28T18:24:09;101835.66;;;1.05;73.55
15529;BME280;7866;52.280;9.500;2023-02-28T18:29:16;101831.47;;;1.01;72.61
15529;BME280;7866;52.280;9.500;2023-02-28T18:34:19;101838.06;;;0.91;73.93
15529;BME280;7866;52.280;9.500;2023-02-28T18:39:21;101834.81;;;0.86;73.68
15529;BME280;7866;52.280;9.500;2023-02-28T18:44:22;101849.47;;;0.72;73.92
15529;BME280;7866;52.280;9.500;2023-02-28T18:49:25;101840.84;;;0.69;73.50
15529;BME280;7866;52.280;9.500;2023-02-28T18:54:27;101827.44;;;0.73;73.88
15529;BME280;7866;52.280;9.500;2023-02-28T18:59:29;101834.63;;;0.70;74.75
15529;BME280;7866;52.280;9.500;2023-02-28T19:04:32;101835.50;;;0.70;74.24
15529;BME280;7866;52.280;9.500;2023-02-28T19:09:34;101830.78;;;0.58;73.88
15529;BME280;7866;52.280;9.500;2023-02-28T19:14:36;101830.19;;;0.52;74.64
15529;BME280;7866;52.280;9.500;2023-02-28T19:19:39;101839.88;;;0.51;74.27
15529;BME280;7866;52.280;9.500;2023-02-28T19:24:40;101835.09;;;0.40;74.57
15529;BME280;7866;52.280;9.500;2023-02-28T19:29:42;101832.25;;;0.45;75.19
15529;BME280;7866;52.280;9.500;2023-02-28T19:34:45;101822.03;;;0.37;75.33
15529;BME280;7866;52.280;9.500;2023-02-28T19:39:47;101825.09;;;0.28;75.64
15529;BME280;7866;52.280;9.500;2023-02-28T19:44:49;101827.75;;;0.27;75.82
15529;BME280;7866;52.280;9.500;2023-02-28T19:49:52;101831.75;;;0.16;75.59
15529;BME280;7866;52.280;9.500;2023-02-28T19:54:54;101832.63;;;0.15;75.54
15529;BME280;7866;52.280;9.500;2023-02-28T19:59:55;101836.94;;;0.18;75.25
15529;BME280;7866;52.280;9.500;2023-02-28T20:04:58;101843.69;;;0.03;75.57
15529;BME280;7866;52.280;9.500;2023-02-28T20:10:00;101857.19;;;-0.05;76.05
15529;BME280;7866;52.280;9.500;2023-02-28T20:15:02;101856.66;;;0.08;75.17
15529;BME280;7866;52.280;9.500;2023-02-28T20:20:07;101861.53;;;-0.04;76.22
15529;BME280;7866;52.280;9.500;2023-02-28T20:25:10;101856.31;;;-0.05;76.37
15529;BME280;7866;52.280;9.500;2023-02-28T20:30:12;101856.44;;;-0.08;76.14
15529;BME280;7866;52.280;9.500;2023-02-28T20:35:15;101863.19;;;-0.01;75.30
15529;BME280;7866;52.280;9.500;2023-02-28T20:40:17;101863.13;;;0.01;74.89
15529;BME280;7866;52.280;9.500;2023-02-28T20:45:19;101866.75;;;-0.02;74.97
15529;BME280;7866;52.280;9.500;2023-02-28T20:50:22;101868.41;;;-0.21;76.32
15529;BME280;7866;52.280;9.500;2023-02-28T20:55:24;101869.06;;;-0.16;76.44
15529;BME280;7866;52.280;9.500;2023-02-28T21:00:26;101857.69;;;-0.17;76.65
15529;BME280;7866;52.280;9.500;2023-02-28T21:05:29;101852.88;;;-0.28;76.75
15529;BME280;7866;52.280;9.500;2023-02-28T21:10:30;101851.75;;;-0.22;76.53
15529;BME280;7866;52.280;9.500;2023-02-28T21:15:36;101855.91;;;-0.16;76.41
15529;BME280;7866;52.280;9.500;2023-02-28T21:20:39;101841.97;;;-0.18;75.61
15529;BME280;7866;52.280;9.500;2023-02-28T21:25:41;101853.53;;;-0.22;75.94
15529;BME280;7866;52.280;9.500;2023-02-28T21:30:42;101854.31;;;-0.20;76.29
15529;BME280;7866;52.280;9.500;2023-02-28T21:35:46;101856.94;;;-0.20;74.95
15529;BME280;7866;52.280;9.500;2023-02-28T21:40:47;101860.50;;;-0.21;74.93
15529;BME280;7866;52.280;9.500;2023-02-28T21:45:50;101862.22;;;-0.20;75.46
15529;BME280;7866;52.280;9.500;2023-02-28T21:50:58;101864.84;;;-0.20;74.91
15529;BME280;7866;52.280;9.500;2023-02-28T21:56:02;101859.22;;;-0.33;76.16
15529;BME280;7866;52.280;9.500;2023-02-28T22:01:06;101862.06;;;-0.38;76.34
15529;BME280;7866;52.280;9.500;2023-02-28T22:06:11;101857.34;;;-0.30;76.16
15529;BME280;7866;52.280;9.500;2023-02-28T22:11:15;101857.66;;;-0.59;76.63
15529;BME280;7866;52.280;9.500;2023-02-28T22:16:18;101854.66;;;-0.50;76.07
15529;BME280;7866;52.280;9.500;2023-02-28T22:21:22;101856.63;;;-0.55;76.39
15529;BME280;7866;52.280;9.500;2023-02-28T22:26:24;101851.84;;;-0.67;77.14
15529;BME280;7866;52.280;9.500;2023-02-28T22:31:28;101850.47;;;-0.78;76.99
15529;BME280;7866;52.280;9.500;2023-02-28T22:36:31;101854.94;;;-0.80;77.38
15529;BME280;7866;52.280;9.500;2023-02-28T22:41:33;101829.41;;;-0.78;77.96
15529;BME280;7866;52.280;9.500;2023-02-28T22:46:35;101852.81;;;-0.70;76.52
15529;BME280;7866;52.280;9.500;2023-02-28T22:51:38;101840.50;;;-0.69;77.08
15529;BME280;7866;52.280;9.500;2023-02-28T22:56:40;101847.72;;;-0.75;76.56
15529;BME280;7866;52.280;9.500;2023-02-28T23:01:42;101842.81;;;-0.84;76.77
15529;BME280;7866;52.280;9.500;2023-02-28T23:06:45;101838.41;;;-0.83;77.70
15529;BME280;7866;52.280;9.500;2023-02-28T23:11:49;101843.44;;;-1.01;77.67
15529;BME280;7866;52.280;9.500;2023-02-28T23:16:52;101848.78;;;-1.02;76.91
15529;BME280;7866;52.280;9.500;2023-02-28T23:21:57;101855.13;;;-1.08;76.80
15529;BME280;7866;52.280;9.500;2023-02-28T23:27:01;101842.31;;;-1.17;77.66
15529;BME280;7866;52.280;9.500;2023-02-28T23:32:03;101855.25;;;-1.11;77.15
15529;BME280;7866;52.280;9.500;2023-02-28T23:37:06;101851.41;;;-1.26;77.52
15529;BME280;7866;52.280;9.500;2023-02-28T23:42:08;101853.25;;;-1.28;78.10
15529;BME280;7866;52.280;9.500;2023-02-28T23:47:10;101852.59;;;-1.34;78.20
15529;BME280;7866;52.280;9.500;2023-02-28T23:52:14;101863.00;;;-1.31;77.39
15529;BME280;7866;52.280;9.500;2023-02-28T23:57:16;101859.22;;;-1.47;78.13
